createdAt,value
2023-02-11T00:03:48.347Z,14.23
2023-02-11T00:08:53.630Z,15.77
2023-02-11T00:13:57.801Z,15.93
2023-02-11T00:19:02.390Z,16.25
2023-02-11T00:24:07.894Z,15.45
2023-02-11T00:29:11.580Z,16.27
2023-02-11T00:34:17.401Z,17.00
2023-02-11T00:39:22.364Z,16.52
2023-02-11T00:44:26.014Z,16.63
2023-02-11T00:49:29.595Z,15.75
2023-02-11T00:54:34.716Z,15.18
2023-02-11T00:59:38.704Z,14.88
2023-02-11T01:04:42.805Z,15.65
2023-02-11T01:09:47.794Z,15.70
2023-02-11T01:14:51.640Z,15.60
2023-02-11T01:19:56.357Z,16.30
2023-02-11T01:25:03.480Z,15.18
2023-02-11T01:30:13.805Z,15.00
2023-02-11T01:35:17.751Z,15.57
2023-02-11T01:40:22.902Z,15.75
2023-02-11T01:45:55.425Z,15.55
2023-02-11T01:51:04.263Z,16.20
2023-02-11T01:56:27.592Z,17.00
2023-02-11T02:01:39.915Z,17.08
2023-02-11T02:06:50.434Z,15.57
2023-02-11T02:11:55.928Z,16.60
2023-02-11T02:16:59.586Z,16.63
2023-02-11T02:22:49.139Z,16.40
2023-02-11T02:28:01.313Z,16.67
2023-02-11T02:33:22.945Z,16.70
2023-02-11T02:38:32.799Z,16.50
2023-02-11T02:48:43.770Z,15.30
2023-02-11T02:53:59.672Z,15.30
2023-02-11T02:59:27.675Z,15.43
2023-02-11T03:04:39.209Z,14.85
2023-02-11T03:09:48.195Z,15.23
2023-02-11T03:14:53.704Z,14.23
2023-02-11T03:20:01.107Z,15.43
2023-02-11T03:25:05.637Z,14.50
2023-02-11T03:30:14.581Z,14.73
2023-02-11T03:35:24.663Z,15.20
2023-02-11T03:40:32.060Z,15.32
2023-02-11T03:45:38.667Z,14.85
2023-02-11T03:50:46.601Z,16.10
2023-02-11T03:55:53.305Z,15.18
2023-02-11T04:00:57.003Z,16.10
2023-02-11T04:06:02.161Z,14.50
2023-02-11T04:11:05.885Z,14.88
2023-02-11T04:16:09.701Z,13.43
2023-02-11T04:21:14.821Z,13.60
2023-02-11T04:26:18.410Z,13.02
2023-02-11T04:31:22.192Z,14.20
2023-02-11T04:36:27.389Z,13.77
2023-02-11T04:41:31.181Z,13.75
2023-02-11T04:46:34.906Z,13.82
2023-02-11T04:51:39.936Z,15.05
2023-02-11T04:56:43.541Z,16.02
2023-02-11T05:01:47.098Z,14.68
2023-02-11T05:06:52.220Z,14.50
2023-02-11T05:11:56.072Z,16.10
2023-02-11T05:16:59.851Z,16.90
2023-02-11T05:22:05.223Z,16.35
2023-02-11T05:27:11.762Z,16.30
2023-02-11T05:32:15.449Z,16.67
2023-02-11T05:37:20.768Z,16.65
2023-02-11T05:42:24.406Z,16.83
2023-02-11T05:47:28.211Z,17.42
2023-02-11T05:52:33.245Z,16.83
2023-02-11T05:57:42.304Z,16.13
2023-02-11T06:02:46.001Z,16.10
2023-02-11T06:07:51.110Z,16.52
2023-02-11T06:12:54.866Z,19.50
2023-02-11T06:17:58.466Z,17.92
2023-02-11T06:23:03.493Z,15.20
2023-02-11T06:28:07.221Z,17.52
2023-02-11T06:33:11.009Z,16.90
2023-02-11T06:38:16.053Z,17.50
2023-02-11T06:43:19.868Z,16.10
2023-02-11T06:48:24.766Z,14.75
2023-02-11T06:53:29.919Z,14.82
2023-02-11T06:58:34.580Z,15.65
2023-02-11T07:03:40.107Z,14.63
2023-02-11T07:08:46.009Z,15.00
2023-02-11T07:13:49.579Z,13.95
2023-02-11T07:18:53.856Z,16.15
2023-02-11T07:23:58.925Z,18.73
2023-02-11T07:29:02.616Z,18.80
2023-02-11T07:34:11.936Z,17.13
2023-02-11T07:39:17.281Z,15.98
2023-02-11T07:44:21.396Z,16.98
2023-02-11T07:49:27.169Z,15.00
2023-02-11T07:54:32.483Z,13.65
2023-02-11T07:59:36.393Z,13.00
2023-02-11T08:04:40.353Z,13.10
2023-02-11T08:09:45.876Z,12.48
2023-02-11T08:14:49.547Z,13.00
2023-02-11T08:19:53.291Z,11.55
2023-02-11T08:24:58.673Z,11.85
2023-02-11T08:30:02.525Z,12.18
2023-02-11T08:35:07.964Z,11.55
2023-02-11T08:40:13.412Z,11.38
2023-02-11T08:45:17.193Z,12.52
2023-02-11T08:50:21.220Z,12.90
2023-02-11T08:55:26.539Z,11.98
2023-02-11T09:00:30.418Z,11.73
2023-02-11T09:05:34.390Z,11.10
2023-02-11T09:10:40.208Z,10.02
2023-02-11T09:15:46.801Z,8.95
2023-02-11T09:20:50.777Z,9.27
2023-02-11T09:25:56.091Z,9.80
2023-02-11T09:30:59.991Z,9.52
2023-02-11T09:36:04.311Z,8.60
2023-02-11T09:41:27.351Z,9.27
2023-02-11T09:46:34.220Z,8.20
2023-02-11T09:51:47.393Z,8.50
2023-02-11T09:56:52.846Z,7.82
2023-02-11T10:02:02.652Z,8.98
2023-02-11T10:07:16.885Z,9.43
2023-02-11T10:12:45.956Z,8.63
2023-02-11T10:18:12.376Z,6.97
2023-02-11T10:23:20.735Z,7.82
2023-02-11T10:28:32.050Z,7.80
2023-02-11T10:33:43.990Z,6.57
2023-02-11T10:38:47.883Z,6.15
2023-02-11T10:43:57.098Z,7.43
2023-02-11T10:49:01.415Z,8.17
2023-02-11T10:54:19.625Z,7.72
2023-02-11T10:59:28.631Z,8.93
2023-02-11T11:04:39.752Z,8.02
2023-02-11T11:09:50.749Z,8.75
2023-02-11T11:14:58.481Z,8.27
2023-02-11T11:20:23.227Z,8.57
2023-02-11T11:25:29.446Z,9.00
2023-02-11T11:30:43.841Z,9.40
2023-02-11T11:35:58.674Z,8.10
2023-02-11T11:41:16.875Z,10.05
2023-02-11T11:46:25.585Z,7.95
2023-02-11T11:51:31.658Z,8.40
2023-02-11T11:56:40.087Z,8.65
2023-02-11T12:01:54.356Z,8.27
2023-02-11T12:07:25.743Z,8.88
2023-02-11T12:12:42.200Z,9.82
2023-02-11T12:18:07.772Z,9.40
2023-02-11T12:23:31.605Z,10.40
2023-02-11T12:28:42.484Z,9.90
2023-02-11T12:34:12.713Z,10.98
2023-02-11T12:39:27.303Z,9.43
2023-02-11T12:44:38.664Z,11.30
2023-02-11T12:50:01.350Z,11.90
2023-02-11T12:55:17.080Z,12.52
2023-02-11T13:00:24.846Z,14.38
2023-02-11T13:05:37.507Z,14.18
2023-02-11T13:10:44.281Z,11.95
2023-02-11T13:15:54.996Z,12.65
2023-02-11T13:21:11.739Z,13.45
2023-02-11T13:26:23.924Z,12.73
2023-02-11T13:31:31.046Z,12.43
2023-02-11T13:36:36.260Z,13.23
2023-02-11T13:41:41.861Z,13.93
2023-02-11T13:46:53.945Z,10.98
2023-02-11T13:52:00.116Z,13.40
2023-02-11T13:57:35.243Z,13.30
2023-02-11T14:02:57.102Z,12.57
2023-02-11T14:08:36.852Z,12.20
2023-02-11T14:14:26.454Z,11.35
2023-02-11T14:19:34.005Z,12.40
2023-02-11T14:24:55.111Z,11.55
2023-02-11T14:30:20.751Z,11.82
2023-02-11T14:35:33.270Z,11.15
2023-02-11T14:40:47.679Z,12.18
2023-02-11T14:45:54.799Z,10.68
2023-02-11T14:51:02.543Z,11.43
2023-02-11T14:56:19.547Z,10.10
2023-02-11T15:01:30.694Z,11.43
2023-02-11T15:06:37.761Z,10.45
2023-02-11T15:11:46.323Z,10.73
2023-02-11T15:16:50.821Z,12.43
2023-02-11T15:21:55.318Z,11.88
2023-02-11T15:27:02.689Z,11.75
2023-02-11T15:32:16.047Z,11.82
2023-02-11T15:37:22.746Z,10.73
2023-02-11T15:42:32.537Z,12.50
2023-02-11T15:47:42.040Z,11.88
2023-02-11T15:52:47.479Z,10.90
2023-02-11T15:57:56.087Z,10.45
2023-02-11T16:02:59.960Z,12.23
2023-02-11T16:08:21.259Z,12.25
2023-02-11T16:13:28.491Z,10.65
2023-02-11T16:18:39.327Z,11.30
2023-02-11T16:23:44.858Z,11.02
2023-02-11T16:28:50.290Z,11.32
2023-02-11T16:33:54.096Z,11.40
2023-02-11T16:38:57.781Z,12.45
2023-02-11T16:44:03.023Z,11.10
2023-02-11T16:49:33.881Z,12.27
2023-02-11T16:54:37.561Z,11.75
2023-02-11T17:20:50.802Z,14.35
2023-02-11T17:25:58.040Z,20.70
2023-02-11T17:31:02.431Z,15.18
2023-02-11T17:36:09.082Z,14.25
2023-02-11T17:41:13.094Z,12.73
2023-02-11T17:46:16.789Z,13.88
2023-02-11T17:51:27.246Z,13.38
2023-02-11T17:56:33.325Z,16.27
2023-02-11T18:01:38.339Z,14.68
2023-02-11T18:06:44.112Z,13.85
2023-02-11T18:11:48.552Z,13.60
2023-02-11T18:16:53.040Z,13.73
2023-02-11T18:22:00.892Z,16.15
2023-02-11T18:27:05.492Z,16.85
2023-02-11T18:32:09.330Z,16.52
2023-02-11T18:44:08.400Z,14.40
2023-02-11T18:49:13.206Z,13.95
2023-02-11T18:54:16.673Z,14.55
2023-02-11T18:59:21.526Z,13.75
2023-02-11T19:04:25.162Z,13.23
2023-02-11T19:09:28.567Z,12.45
2023-02-11T19:14:34.856Z,13.52
2023-02-11T19:19:38.462Z,13.80
2023-02-11T19:24:41.955Z,14.35
2023-02-11T19:29:46.910Z,14.60
2023-02-11T19:34:51.735Z,14.98
2023-02-11T19:39:55.247Z,15.90
2023-02-11T19:45:00.069Z,15.68
2023-02-11T19:50:03.683Z,16.15
2023-02-11T19:55:08.282Z,15.63
2023-02-11T20:00:17.074Z,15.65
2023-02-11T20:05:20.872Z,14.90
2023-02-11T20:10:24.847Z,15.27
2023-02-11T20:15:30.062Z,16.42
2023-02-11T20:20:33.982Z,16.63
2023-02-11T20:25:42.646Z,16.83
2023-02-11T20:30:57.052Z,16.80
2023-02-11T20:36:04.935Z,16.17
2023-02-11T20:41:13.857Z,16.98
2023-02-11T20:46:21.719Z,17.90
2023-02-11T20:51:28.255Z,16.60
2023-02-11T20:56:34.730Z,17.42
2023-02-11T21:01:42.595Z,16.58
2023-02-11T21:06:48.830Z,17.35
2023-02-11T21:11:54.084Z,15.65
2023-02-11T21:17:02.219Z,16.20
2023-02-11T21:22:06.104Z,17.35
2023-02-11T21:27:09.974Z,17.20
2023-02-11T21:32:17.790Z,16.58
2023-02-11T21:37:23.210Z,15.65
2023-02-11T21:42:32.200Z,17.90
2023-02-11T21:47:37.900Z,17.45
2023-02-11T21:58:18.985Z,16.55
2023-02-11T22:03:23.775Z,16.77
2023-02-11T22:08:27.302Z,16.95
2023-02-11T22:13:30.746Z,16.65
2023-02-11T22:18:36.184Z,17.35
2023-02-11T22:23:40.430Z,18.92
2023-02-11T22:28:44.539Z,17.92
2023-02-11T22:33:50.051Z,18.83
2023-02-11T22:38:54.275Z,19.30
2023-02-11T22:43:57.734Z,17.85
2023-02-11T22:49:05.766Z,19.15
2023-02-11T22:54:13.080Z,17.67
2023-02-11T22:59:17.202Z,19.10
2023-02-11T23:04:22.371Z,17.52
2023-02-11T23:09:25.779Z,19.08
2023-02-11T23:14:29.138Z,18.60
2023-02-11T23:19:35.247Z,18.88
2023-02-11T23:24:38.989Z,19.92
2023-02-11T23:29:42.508Z,17.50
2023-02-11T23:34:47.476Z,18.80
2023-02-11T23:39:51.007Z,17.92
2023-02-11T23:44:54.405Z,16.83
2023-02-11T23:49:59.694Z,18.35
2023-02-11T23:55:03.368Z,19.95
